sensor_id;sensor_type;location;lat;lon;timestamp;pressure;altitude;pressure_sealevel;temperature;humidity
19114;BME280;9689;51.052;13.772;2023-04-30T00:04:05;100683.25;;;10.76;76.16
19114;BME280;9689;51.052;13.772;2023-04-30T00:09:07;100691.97;;;10.73;76.21
19114;BME280;9689;51.052;13.772;2023-04-30T00:14:08;100689.53;;;10.63;76.75
19114;BME280;9689;51.052;13.772;2023-04-30T00:19:09;100693.72;;;10.73;76.12
19114;BME280;9689;51.052;13.772;2023-04-30T00:24:11;100697.28;;;10.69;76.38
19114;BME280;9689;51.052;13.772;2023-04-30T00:29:12;100701.59;;;10.68;75.78
19114;BME280;9689;51.052;13.772;2023-04-30T00:34:12;100701.69;;;10.62;76.06
19114;BME280;9689;51.052;13.772;2023-04-30T00:39:14;100701.75;;;10.58;74.68
19114;BME280;9689;51.052;13.772;2023-04-30T00:44:15;100704.41;;;10.55;74.35
19114;BME280;9689;51.052;13.772;2023-04-30T00:49:16;100708.91;;;10.43;73.88
19114;BME280;9689;51.052;13.772;2023-04-30T00:54:19;100723.72;;;10.38;71.68
19114;BME280;9689;51.052;13.772;2023-04-30T00:59:20;100723.81;;;10.31;71.41
19114;BME280;9689;51.052;13.772;2023-04-30T01:04:21;100734.34;;;10.18;71.91
19114;BME280;9689;51.052;13.772;2023-04-30T01:09:23;100738.81;;;10.09;72.45
19114;BME280;9689;51.052;13.772;2023-04-30T01:14:27;100742.31;;;10.05;73.48
19114;BME280;9689;51.052;13.772;2023-04-30T01:19:37;100739.84;;;9.93;73.64
19114;BME280;9689;51.052;13.772;2023-04-30T01:24:48;100744.34;;;9.75;74.01
19114;BME280;9689;51.052;13.772;2023-04-30T01:29:55;100755.75;;;9.60;74.61
19114;BME280;9689;51.052;13.772;2023-04-30T01:34:58;100761.88;;;9.58;74.17
19114;BME280;9689;51.052;13.772;2023-04-30T01:40:17;100766.28;;;9.48;74.19
19114;BME280;9689;51.052;13.772;2023-04-30T01:45:34;100762.94;;;9.32;75.24
19114;BME280;9689;51.052;13.772;2023-04-30T01:50:43;100778.59;;;9.25;76.11
19114;BME280;9689;51.052;13.772;2023-04-30T01:55:50;100782.06;;;9.24;76.69
19114;BME280;9689;51.052;13.772;2023-04-30T02:00:53;100791.69;;;9.13;77.74
19114;BME280;9689;51.052;13.772;2023-04-30T02:05:54;100804.75;;;8.99;78.17
19114;BME280;9689;51.052;13.772;2023-04-30T02:10:55;100816.09;;;8.83;78.96
19114;BME280;9689;51.052;13.772;2023-04-30T02:15:57;100816.13;;;8.76;79.21
19114;BME280;9689;51.052;13.772;2023-04-30T02:20:58;100834.38;;;8.60;79.66
19114;BME280;9689;51.052;13.772;2023-04-30T02:25:58;100837.00;;;8.55;79.01
19114;BME280;9689;51.052;13.772;2023-04-30T02:31:00;100851.75;;;8.38;79.52
19114;BME280;9689;51.052;13.772;2023-04-30T02:36:01;100851.72;;;8.33;79.17
19114;BME280;9689;51.052;13.772;2023-04-30T02:41:02;100852.63;;;8.18;79.29
19114;BME280;9689;51.052;13.772;2023-04-30T02:46:04;100854.34;;;8.13;78.59
19114;BME280;9689;51.052;13.772;2023-04-30T02:51:05;100876.84;;;7.98;79.86
19114;BME280;9689;51.052;13.772;2023-04-30T02:56:06;100875.16;;;7.92;79.65
19114;BME280;9689;51.052;13.772;2023-04-30T03:01:08;100878.59;;;7.86;79.49
19114;BME280;9689;51.052;13.772;2023-04-30T03:06:09;100886.38;;;7.77;79.73
19114;BME280;9689;51.052;13.772;2023-04-30T03:11:10;100890.69;;;7.66;79.56
19114;BME280;9689;51.052;13.772;2023-04-30T03:16:12;100903.63;;;7.52;80.15
19114;BME280;9689;51.052;13.772;2023-04-30T03:21:13;100896.69;;;7.47;80.31
19114;BME280;9689;51.052;13.772;2023-04-30T03:26:14;100901.84;;;7.34;80.34
19114;BME280;9689;51.052;13.772;2023-04-30T03:31:16;100909.63;;;7.33;79.85
19114;BME280;9689;51.052;13.772;2023-04-30T03:36:16;100923.44;;;7.26;80.12
19114;BME280;9689;51.052;13.772;2023-04-30T03:41:17;100930.31;;;7.13;80.34
19114;BME280;9689;51.052;13.772;2023-04-30T03:46:19;100929.41;;;7.08;80.79
19114;BME280;9689;51.052;13.772;2023-04-30T03:51:20;100942.34;;;6.97;80.77
19114;BME280;9689;51.052;13.772;2023-04-30T03:56:22;100941.44;;;6.92;81.21
19114;BME280;9689;51.052;13.772;2023-04-30T04:01:25;100948.38;;;7.02;80.41
19114;BME280;9689;51.052;13.772;2023-04-30T04:06:26;100949.25;;;6.98;80.01
19114;BME280;9689;51.052;13.772;2023-04-30T04:11:28;100956.16;;;6.98;79.94
19114;BME280;9689;51.052;13.772;2023-04-30T04:16:30;100964.78;;;6.95;80.71
19114;BME280;9689;51.052;13.772;2023-04-30T04:21:31;100964.75;;;6.89;80.48
19114;BME280;9689;51.052;13.772;2023-04-30T04:26:36;100971.66;;;6.92;80.47
19114;BME280;9689;51.052;13.772;2023-04-30T04:31:38;100988.06;;;6.92;80.17
19114;BME280;9689;51.052;13.772;2023-04-30T04:36:43;100988.03;;;6.86;79.88
19114;BME280;9689;51.052;13.772;2023-04-30T04:41:44;100994.91;;;6.84;80.10
19114;BME280;9689;51.052;13.772;2023-04-30T04:46:46;100999.28;;;6.91;80.24
19114;BME280;9689;51.052;13.772;2023-04-30T04:51:47;101010.53;;;6.95;80.31
19114;BME280;9689;51.052;13.772;2023-04-30T04:56:47;101013.16;;;6.98;79.70
19114;BME280;9689;51.052;13.772;2023-04-30T05:01:49;101013.22;;;7.12;79.22
19114;BME280;9689;51.052;13.772;2023-04-30T05:06:50;101023.69;;;7.25;79.21
19114;BME280;9689;51.052;13.772;2023-04-30T05:11:51;101028.00;;;7.26;78.34
19114;BME280;9689;51.052;13.772;2023-04-30T05:16:53;101034.09;;;7.34;77.11
19114;BME280;9689;51.052;13.772;2023-04-30T05:21:54;101040.19;;;7.44;77.00
19114;BME280;9689;51.052;13.772;2023-04-30T05:26:54;101037.59;;;7.44;77.12
19114;BME280;9689;51.052;13.772;2023-04-30T05:31:56;101049.69;;;7.44;77.01
19114;BME280;9689;51.052;13.772;2023-04-30T05:36:57;101044.50;;;7.44;75.97
19114;BME280;9689;51.052;13.772;2023-04-30T05:41:59;101049.69;;;7.39;76.51
19114;BME280;9689;51.052;13.772;2023-04-30T05:47:03;101052.31;;;7.48;76.84
19114;BME280;9689;51.052;13.772;2023-04-30T05:52:04;101065.25;;;7.45;76.44
19114;BME280;9689;51.052;13.772;2023-04-30T05:57:05;101051.31;;;7.28;76.38
19114;BME280;9689;51.052;13.772;2023-04-30T06:02:07;101056.59;;;7.43;76.62
19114;BME280;9689;51.052;13.772;2023-04-30T06:07:08;101056.59;;;7.45;76.65
19114;BME280;9689;51.052;13.772;2023-04-30T06:12:08;101055.84;;;7.65;75.56
19114;BME280;9689;51.052;13.772;2023-04-30T06:17:11;101061.06;;;7.78;75.55
19114;BME280;9689;51.052;13.772;2023-04-30T06:22:12;101066.34;;;8.02;74.22
19114;BME280;9689;51.052;13.772;2023-04-30T06:27:12;101062.00;;;7.93;73.40
19114;BME280;9689;51.052;13.772;2023-04-30T06:32:14;101062.88;;;7.92;73.83
19114;BME280;9689;51.052;13.772;2023-04-30T06:37:15;101070.69;;;8.25;72.29
19114;BME280;9689;51.052;13.772;2023-04-30T06:42:16;101073.31;;;8.31;72.23
19114;BME280;9689;51.052;13.772;2023-04-30T06:47:18;101072.50;;;8.42;70.97
19114;BME280;9689;51.052;13.772;2023-04-30T06:52:19;101062.13;;;8.38;70.77
19114;BME280;9689;51.052;13.772;2023-04-30T06:57:19;101073.38;;;8.63;69.82
19114;BME280;9689;51.052;13.772;2023-04-30T07:02:22;101065.56;;;8.84;69.09
19114;BME280;9689;51.052;13.772;2023-04-30T07:07:22;101071.66;;;8.83;68.40
19114;BME280;9689;51.052;13.772;2023-04-30T07:12:23;101063.81;;;9.21;67.79
19114;BME280;9689;51.052;13.772;2023-04-30T07:17:25;101071.53;;;9.47;68.19
19114;BME280;9689;51.052;13.772;2023-04-30T07:22:26;101068.97;;;9.29;67.22
19114;BME280;9689;51.052;13.772;2023-04-30T07:27:27;101072.38;;;9.57;67.53
19114;BME280;9689;51.052;13.772;2023-04-30T07:32:29;101065.53;;;9.25;67.32
19114;BME280;9689;51.052;13.772;2023-04-30T07:37:30;101068.09;;;9.41;66.92
19114;BME280;9689;51.052;13.772;2023-04-30T07:42:34;101076.63;;;9.78;65.24
19114;BME280;9689;51.052;13.772;2023-04-30T07:47:36;101080.16;;;9.55;65.57
19114;BME280;9689;51.052;13.772;2023-04-30T07:52:37;101084.44;;;9.82;65.20
19114;BME280;9689;51.052;13.772;2023-04-30T07:57:37;101083.59;;;9.68;64.54
19114;BME280;9689;51.052;13.772;2023-04-30T08:02:40;101095.69;;;9.86;64.18
19114;BME280;9689;51.052;13.772;2023-04-30T08:07:42;101085.16;;;10.04;63.69
19114;BME280;9689;51.052;13.772;2023-04-30T08:12:43;101080.75;;;10.20;62.56
19114;BME280;9689;51.052;13.772;2023-04-30T08:17:48;101080.69;;;10.32;60.70
19114;BME280;9689;51.052;13.772;2023-04-30T08:22:49;101079.72;;;10.52;60.11
19114;BME280;9689;51.052;13.772;2023-04-30T08:27:49;101092.78;;;10.44;60.42
19114;BME280;9689;51.052;13.772;2023-04-30T08:32:51;101087.50;;;10.53;60.68
19114;BME280;9689;51.052;13.772;2023-04-30T08:37:56;101092.75;;;10.52;60.14
19114;BME280;9689;51.052;13.772;2023-04-30T08:43:03;101093.44;;;10.72;58.39
19114;BME280;9689;51.052;13.772;2023-04-30T08:48:09;101086.47;;;10.74;59.20
19114;BME280;9689;51.052;13.772;2023-04-30T08:53:11;101087.28;;;10.81;60.03
19114;BME280;9689;51.052;13.772;2023-04-30T08:58:14;101083.44;;;11.18;58.53
19114;BME280;9689;51.052;13.772;2023-04-30T09:03:16;101099.34;;;10.95;58.91
19114;BME280;9689;51.052;13.772;2023-04-30T09:08:18;101104.78;;;10.65;61.73
19114;BME280;9689;51.052;13.772;2023-04-30T09:13:19;101087.22;;;10.88;58.87
19114;BME280;9689;51.052;13.772;2023-04-30T09:18:21;101088.91;;;10.92;58.08
19114;BME280;9689;51.052;13.772;2023-04-30T09:23:22;101087.13;;;10.99;57.09
19114;BME280;9689;51.052;13.772;2023-04-30T09:28:23;101092.81;;;11.38;56.77
19114;BME280;9689;51.052;13.772;2023-04-30T09:33:27;101090.28;;;11.31;56.06
19114;BME280;9689;51.052;13.772;2023-04-30T09:38:29;101100.94;;;11.09;57.44
19114;BME280;9689;51.052;13.772;2023-04-30T09:43:30;101073.94;;;11.16;53.28
19114;BME280;9689;51.052;13.772;2023-04-30T09:48:33;101082.25;;;11.50;53.72
19114;BME280;9689;51.052;13.772;2023-04-30T09:53:36;101070.75;;;11.68;54.25
19114;BME280;9689;51.052;13.772;2023-04-30T09:58:37;101081.66;;;11.99;52.54
19114;BME280;9689;51.052;13.772;2023-04-30T10:03:41;101058.19;;;12.56;51.75
19114;BME280;9689;51.052;13.772;2023-04-30T10:08:46;101055.44;;;12.08;48.13
19114;BME280;9689;51.052;13.772;2023-04-30T10:13:52;101057.78;;;12.26;50.52
19114;BME280;9689;51.052;13.772;2023-04-30T10:18:58;101039.56;;;12.77;50.47
19114;BME280;9689;51.052;13.772;2023-04-30T10:24:04;101052.34;;;12.40;50.37
19114;BME280;9689;51.052;13.772;2023-04-30T10:29:08;101040.84;;;12.52;50.21
19114;BME280;9689;51.052;13.772;2023-04-30T10:34:20;101055.22;;;12.23;50.32
19114;BME280;9689;51.052;13.772;2023-04-30T10:39:26;101039.34;;;12.35;49.68
19114;BME280;9689;51.052;13.772;2023-04-30T10:44:27;101043.78;;;12.30;49.30
19114;BME280;9689;51.052;13.772;2023-04-30T10:49:32;101028.78;;;12.41;48.14
19114;BME280;9689;51.052;13.772;2023-04-30T10:54:34;101032.81;;;12.62;48.60
19114;BME280;9689;51.052;13.772;2023-04-30T10:59:36;101032.09;;;11.96;50.38
19114;BME280;9689;51.052;13.772;2023-04-30T11:05:09;101024.31;;;12.50;49.48
19114;BME280;9689;51.052;13.772;2023-04-30T11:10:12;101020.91;;;12.44;46.07
19114;BME280;9689;51.052;13.772;2023-04-30T11:15:14;101011.50;;;12.33;46.68
19114;BME280;9689;51.052;13.772;2023-04-30T11:20:20;101015.56;;;12.51;47.34
19114;BME280;9689;51.052;13.772;2023-04-30T11:25:22;101017.63;;;12.32;46.90
19114;BME280;9689;51.052;13.772;2023-04-30T11:30:23;101003.47;;;12.45;47.29
19114;BME280;9689;51.052;13.772;2023-04-30T11:35:27;101003.09;;;12.66;45.29
19114;BME280;9689;51.052;13.772;2023-04-30T11:40:34;101006.91;;;12.98;46.22
19114;BME280;9689;51.052;13.772;2023-04-30T11:45:36;101008.88;;;12.87;45.76
19114;BME280;9689;51.052;13.772;2023-04-30T11:50:41;101016.41;;;13.02;45.97
19114;BME280;9689;51.052;13.772;2023-04-30T11:55:42;100989.91;;;13.22;45.27
19114;BME280;9689;51.052;13.772;2023-04-30T12:00:43;100990.81;;;13.18;44.71
19114;BME280;9689;51.052;13.772;2023-04-30T12:05:45;100977.00;;;13.10;45.78
19114;BME280;9689;51.052;13.772;2023-04-30T12:10:46;100979.31;;;13.26;45.97
19114;BME280;9689;51.052;13.772;2023-04-30T12:15:56;100967.88;;;13.72;42.74
19114;BME280;9689;51.052;13.772;2023-04-30T12:21:00;100976.47;;;13.37;43.35
19114;BME280;9689;51.052;13.772;2023-04-30T12:26:02;100972.44;;;13.22;43.59
19114;BME280;9689;51.052;13.772;2023-04-30T12:31:03;100976.63;;;13.71;42.78
19114;BME280;9689;51.052;13.772;2023-04-30T12:36:10;100965.16;;;13.77;41.31
19114;BME280;9689;51.052;13.772;2023-04-30T12:41:11;100959.81;;;14.19;41.08
19114;BME280;9689;51.052;13.772;2023-04-30T12:46:24;100954.91;;;14.05;40.04
19114;BME280;9689;51.052;13.772;2023-04-30T12:51:27;100948.78;;;14.04;39.26
19114;BME280;9689;51.052;13.772;2023-04-30T12:56:28;100945.31;;;14.04;39.28
19114;BME280;9689;51.052;13.772;2023-04-30T13:01:29;100940.88;;;14.06;39.89
19114;BME280;9689;51.052;13.772;2023-04-30T13:06:33;100924.50;;;14.33;39.67
19114;BME280;9689;51.052;13.772;2023-04-30T13:11:34;100928.72;;;14.03;39.58
19114;BME280;9689;51.052;13.772;2023-04-30T13:16:34;100932.84;;;14.13;39.00
19114;BME280;9689;51.052;13.772;2023-04-30T13:21:39;100921.50;;;14.49;38.90
19114;BME280;9689;51.052;13.772;2023-04-30T13:26:40;100909.53;;;14.71;37.24
19114;BME280;9689;51.052;13.772;2023-04-30T13:31:41;100903.94;;;14.51;36.20
19114;BME280;9689;51.052;13.772;2023-04-30T13:36:43;100901.91;;;14.62;37.49
19114;BME280;9689;51.052;13.772;2023-04-30T13:41:45;100897.34;;;14.70;36.53
19114;BME280;9689;51.052;13.772;2023-04-30T13:46:47;100888.25;;;14.82;36.24
19114;BME280;9689;51.052;13.772;2023-04-30T13:51:50;100888.94;;;14.88;35.21
19114;BME280;9689;51.052;13.772;2023-04-30T13:56:50;100892.47;;;14.87;34.43
19114;BME280;9689;51.052;13.772;2023-04-30T14:01:51;100888.00;;;14.58;33.92
19114;BME280;9689;51.052;13.772;2023-04-30T14:06:53;100877.19;;;14.70;33.81
19114;BME280;9689;51.052;13.772;2023-04-30T14:11:56;100875.22;;;14.79;32.36
19114;BME280;9689;51.052;13.772;2023-04-30T14:16:57;100874.56;;;15.02;29.99
19114;BME280;9689;51.052;13.772;2023-04-30T14:21:59;100869.75;;;15.16;29.49
19114;BME280;9689;51.052;13.772;2023-04-30T14:27:00;100864.63;;;15.11;28.56
19114;BME280;9689;51.052;13.772;2023-04-30T14:32:03;100865.94;;;15.26;26.13
19114;BME280;9689;51.052;13.772;2023-04-30T14:37:05;100864.00;;;15.33;25.91
19114;BME280;9689;51.052;13.772;2023-04-30T14:42:06;100853.78;;;15.23;27.07
19114;BME280;9689;51.052;13.772;2023-04-30T14:47:07;100852.53;;;15.35;24.85
19114;BME280;9689;51.052;13.772;2023-04-30T14:52:09;100845.56;;;15.34;24.17
19114;BME280;9689;51.052;13.772;2023-04-30T14:57:10;100848.06;;;15.39;24.74
19114;BME280;9689;51.052;13.772;2023-04-30T15:02:11;100847.56;;;15.54;25.14
19114;BME280;9689;51.052;13.772;2023-04-30T15:07:13;100841.06;;;15.67;23.86
19114;BME280;9689;51.052;13.772;2023-04-30T15:12:14;100831.16;;;15.75;24.40
19114;BME280;9689;51.052;13.772;2023-04-30T15:17:14;100830.34;;;15.73;25.45
19114;BME280;9689;51.052;13.772;2023-04-30T15:22:16;100828.16;;;15.86;27.74
19114;BME280;9689;51.052;13.772;2023-04-30T15:27:17;100829.03;;;15.87;29.09
19114;BME280;9689;51.052;13.772;2023-04-30T15:32:18;100828.19;;;16.11;29.17
19114;BME280;9689;51.052;13.772;2023-04-30T15:37:20;100824.00;;;16.05;29.79
19114;BME280;9689;51.052;13.772;2023-04-30T15:42:21;100819.78;;;16.26;29.69
19114;BME280;9689;51.052;13.772;2023-04-30T15:47:22;100819.44;;;16.35;30.13
19114;BME280;9689;51.052;13.772;2023-04-30T15:52:24;100829.13;;;16.35;30.89
19114;BME280;9689;51.052;13.772;2023-04-30T15:57:25;100822.41;;;16.51;30.66
19114;BME280;9689;51.052;13.772;2023-04-30T16:02:25;100821.94;;;16.88;36.00
19114;BME280;9689;51.052;13.772;2023-04-30T16:07:29;100816.22;;;16.52;32.97
19114;BME280;9689;51.052;13.772;2023-04-30T16:12:30;100808.41;;;16.98;33.96
19114;BME280;9689;51.052;13.772;2023-04-30T16:17:32;100807.56;;;17.19;31.83
19114;BME280;9689;51.052;13.772;2023-04-30T16:22:34;100798.75;;;17.42;32.45
19114;BME280;9689;51.052;13.772;2023-04-30T16:27:35;100800.59;;;17.40;31.33
19114;BME280;9689;51.052;13.772;2023-04-30T16:32:36;100793.25;;;17.26;31.35
19114;BME280;9689;51.052;13.772;2023-04-30T16:37:38;100791.69;;;18.27;30.00
19114;BME280;9689;51.052;13.772;2023-04-30T16:42:39;100787.47;;;20.08;26.88
19114;BME280;9689;51.052;13.772;2023-04-30T16:47:40;100785.06;;;20.37;24.95
19114;BME280;9689;51.052;13.772;2023-04-30T16:52:42;100771.09;;;21.47;24.15
19114;BME280;9689;51.052;13.772;2023-04-30T16:57:43;100762.22;;;21.62;23.20
19114;BME280;9689;51.052;13.772;2023-04-30T17:02:44;100765.34;;;19.57;25.96
19114;BME280;9689;51.052;13.772;2023-04-30T17:07:49;100774.50;;;20.70;24.46
19114;BME280;9689;51.052;13.772;2023-04-30T17:12:49;100777.50;;;20.95;24.21
19114;BME280;9689;51.052;13.772;2023-04-30T17:17:50;100786.25;;;20.31;24.30
19114;BME280;9689;51.052;13.772;2023-04-30T17:22:54;100779.19;;;20.65;24.43
19114;BME280;9689;51.052;13.772;2023-04-30T17:27:54;100787.44;;;20.58;23.92
19114;BME280;9689;51.052;13.772;2023-04-30T17:32:55;100793.50;;;20.45;24.48
19114;BME280;9689;51.052;13.772;2023-04-30T17:38:01;100790.69;;;20.30;24.94
19114;BME280;9689;51.052;13.772;2023-04-30T17:43:02;100789.84;;;20.13;25.50
19114;BME280;9689;51.052;13.772;2023-04-30T17:48:03;100792.38;;;19.81;25.47
19114;BME280;9689;51.052;13.772;2023-04-30T17:53:05;100791.81;;;18.03;28.13
19114;BME280;9689;51.052;13.772;2023-04-30T17:58:06;100798.81;;;15.73;31.98
19114;BME280;9689;51.052;13.772;2023-04-30T18:03:08;100806.00;;;14.83;33.52
19114;BME280;9689;51.052;13.772;2023-04-30T18:08:11;100802.41;;;14.23;34.83
19114;BME280;9689;51.052;13.772;2023-04-30T18:13:11;100809.84;;;13.73;36.69
19114;BME280;9689;51.052;13.772;2023-04-30T18:18:12;100822.03;;;13.37;37.68
19114;BME280;9689;51.052;13.772;2023-04-30T18:23:15;100819.09;;;13.12;38.79
19114;BME280;9689;51.052;13.772;2023-04-30T18:28:15;100830.84;;;12.94;38.75
19114;BME280;9689;51.052;13.772;2023-04-30T18:33:16;100824.34;;;12.70;39.99
19114;BME280;9689;51.052;13.772;2023-04-30T18:38:18;100821.25;;;12.52;40.52
19114;BME280;9689;51.052;13.772;2023-04-30T18:43:20;100822.41;;;12.37;41.35
19114;BME280;9689;51.052;13.772;2023-04-30T18:48:21;100828.06;;;12.12;42.91
19114;BME280;9689;51.052;13.772;2023-04-30T18:53:23;100838.06;;;11.87;43.61
19114;BME280;9689;51.052;13.772;2023-04-30T18:58:24;100842.72;;;11.69;47.05
19114;BME280;9689;51.052;13.772;2023-04-30T19:03:25;100849.00;;;11.57;45.90
19114;BME280;9689;51.052;13.772;2023-04-30T19:08:28;100849.16;;;11.45;46.58
19114;BME280;9689;51.052;13.772;2023-04-30T19:13:29;100857.13;;;11.36;46.76
19114;BME280;9689;51.052;13.772;2023-04-30T19:18:30;100846.91;;;11.22;46.72
19114;BME280;9689;51.052;13.772;2023-04-30T19:23:33;100855.72;;;11.10;48.42
19114;BME280;9689;51.052;13.772;2023-04-30T19:28:34;100861.88;;;11.06;46.66
19114;BME280;9689;51.052;13.772;2023-04-30T19:33:35;100859.47;;;10.91;47.11
19114;BME280;9689;51.052;13.772;2023-04-30T19:38:39;100860.59;;;10.70;49.40
19114;BME280;9689;51.052;13.772;2023-04-30T19:43:40;100858.97;;;10.58;52.52
19114;BME280;9689;51.052;13.772;2023-04-30T19:48:42;100872.25;;;10.35;53.83
19114;BME280;9689;51.052;13.772;2023-04-30T19:53:44;100865.53;;;10.10;54.53
19114;BME280;9689;51.052;13.772;2023-04-30T19:58:45;100869.09;;;9.98;55.00
19114;BME280;9689;51.052;13.772;2023-04-30T20:03:47;100872.56;;;9.97;54.51
19114;BME280;9689;51.052;13.772;2023-04-30T20:08:49;100883.97;;;9.81;55.94
19114;BME280;9689;51.052;13.772;2023-04-30T20:13:50;100877.09;;;9.72;57.44
19114;BME280;9689;51.052;13.772;2023-04-30T20:18:50;100872.00;;;9.58;59.20
19114;BME280;9689;51.052;13.772;2023-04-30T20:23:52;100862.56;;;9.42;59.29
19114;BME280;9689;51.052;13.772;2023-04-30T20:28:53;100870.47;;;9.30;60.12
19114;BME280;9689;51.052;13.772;2023-04-30T20:33:54;100867.03;;;9.20;60.59
19114;BME280;9689;51.052;13.772;2023-04-30T20:38:56;100866.22;;;9.11;61.11
19114;BME280;9689;51.052;13.772;2023-04-30T20:43:57;100870.59;;;9.04;61.70
19114;BME280;9689;51.052;13.772;2023-04-30T20:48:59;100866.28;;;8.97;62.99
19114;BME280;9689;51.052;13.772;2023-04-30T20:54:04;100871.53;;;8.85;63.53
19114;BME280;9689;51.052;13.772;2023-04-30T20:59:07;100868.13;;;8.60;63.99
19114;BME280;9689;51.052;13.772;2023-04-30T21:04:07;100869.91;;;8.55;64.88
19114;BME280;9689;51.052;13.772;2023-04-30T21:09:10;100876.00;;;8.38;65.50
19114;BME280;9689;51.052;13.772;2023-04-30T21:14:10;100873.38;;;8.21;66.69
19114;BME280;9689;51.052;13.772;2023-04-30T21:19:11;100878.59;;;8.17;66.67
19114;BME280;9689;51.052;13.772;2023-04-30T21:24:13;100879.44;;;8.07;66.52
19114;BME280;9689;51.052;13.772;2023-04-30T21:29:14;100887.22;;;7.99;66.71
19114;BME280;9689;51.052;13.772;2023-04-30T21:34:14;100888.09;;;7.87;66.93
19114;BME280;9689;51.052;13.772;2023-04-30T21:39:17;100878.63;;;7.82;67.58
19114;BME280;9689;51.052;13.772;2023-04-30T21:44:17;100876.88;;;7.75;68.38
19114;BME280;9689;51.052;13.772;2023-04-30T21:49:18;100878.59;;;7.67;68.93
19114;BME280;9689;51.052;13.772;2023-04-30T21:54:20;100875.13;;;7.58;69.31
19114;BME280;9689;51.052;13.772;2023-04-30T21:59:21;100872.50;;;7.45;70.18
19114;BME280;9689;51.052;13.772;2023-04-30T22:04:23;100874.22;;;7.33;70.59
19114;BME280;9689;51.052;13.772;2023-04-30T22:09:26;100868.19;;;7.41;69.74
19114;BME280;9689;51.052;13.772;2023-04-30T22:14:27;100868.16;;;7.36;70.42
19114;BME280;9689;51.052;13.772;2023-04-30T22:19:27;100881.13;;;7.33;71.08
19114;BME280;9689;51.052;13.772;2023-04-30T22:24:29;100871.59;;;7.21;70.95
19114;BME280;9689;51.052;13.772;2023-04-30T22:29:30;100862.06;;;7.14;71.95
19114;BME280;9689;51.052;13.772;2023-04-30T22:34:32;100863.78;;;7.14;71.92
19114;BME280;9689;51.052;13.772;2023-04-30T22:39:35;100843.91;;;7.05;71.74
19114;BME280;9689;51.052;13.772;2023-04-30T22:44:36;100855.94;;;6.92;72.58
19114;BME280;9689;51.052;13.772;2023-04-30T22:49:37;100849.00;;;6.79;72.57
19114;BME280;9689;51.052;13.772;2023-04-30T22:54:39;100845.50;;;6.69;72.82
19114;BME280;9689;51.052;13.772;2023-04-30T22:59:41;100843.72;;;6.67;73.51
19114;BME280;9689;51.052;13.772;2023-04-30T23:04:42;100845.41;;;6.59;73.75
19114;BME280;9689;51.052;13.772;2023-04-30T23:09:44;100848.00;;;6.53;73.53
19114;BME280;9689;51.052;13.772;2023-04-30T23:14:44;100843.59;;;6.41;74.16
19114;BME280;9689;51.052;13.772;2023-04-30T23:19:47;100849.56;;;6.26;74.51
19114;BME280;9689;51.052;13.772;2023-04-30T23:24:50;100845.22;;;6.22;74.56
19114;BME280;9689;51.052;13.772;2023-04-30T23:29:51;100846.88;;;6.14;74.70
19114;BME280;9689;51.052;13.772;2023-04-30T23:34:52;100845.09;;;6.04;74.68
19114;BME280;9689;51.052;13.772;2023-04-30T23:39:57;100831.25;;;5.97;75.54
19114;BME280;9689;51.052;13.772;2023-04-30T23:44:59;100830.38;;;5.92;75.19
19114;BME280;9689;51.052;13.772;2023-04-30T23:49:59;100827.69;;;5.83;75.13
19114;BME280;9689;51.052;13.772;2023-04-30T23:55:01;100817.22;;;5.72;75.51
